LRCL Airport Information

Runway Information
Runway 07 Length 6070 ft width 98 ft
Elevation 1036 ft Threshold 0 ft Heading 79
Runway 25 Length 6070 ft Width 98 ft
Elevation 1025 ft Threshold 0 ft Heading 259
Runway 08 Length 0 ft width 0 ft
Elevation 1036 ft Threshold 0 ft Heading 0
Runway 26 Length 0 ft Width 0 ft
Elevation 1025 ft Threshold 0 ft Heading 0
Airport Frequencies
Type APP Name APP Frequency 125.1 MHZ
Type GCA Name PRECISION Frequency 118.7 MHZ
Type TWR Name TWR Frequency 134.4 MHZ
Airport Navaids
Type VOR-DME Name Cluj Frequency 111200 KHZ
Airport Weather Information & NOTAM
ADDS - METARS form results

(0257 UTC 19 September 2019)
Data provider http://aviationweather.gov/metar/data/
 
METAR text: LRCL 190230Z 10003KT CAVOK 01/M00 Q1022
Conditions at: LRCL (CLUJ-NAPOCA/SOME, RO) observed 0230 UTC 19 September 2019
Temperature: 1.0°C (34°F)
Dewpoint: 0.0°C (32°F) [RH = 93%]
Pressure (altimeter): 30.18 inches Hg (1022.0 mb)
Winds: from the E (100 degrees) at 3 MPH (3 knots; 1.5 m/s)
Visibility: 6 or more miles (10+ km)
Ceiling: ceiling and visibility are OK
Clouds: unknown
Weather: no significant weather observed at this time

METAR text: LRCL 190200Z 10005KT CAVOK 02/M00 Q1022
Conditions at: LRCL (CLUJ-NAPOCA/SOME, RO) observed 0200 UTC 19 September 2019
Temperature: 2.0°C (36°F)
Dewpoint: 0.0°C (32°F) [RH = 87%]
Pressure (altimeter): 30.18 inches Hg (1022.0 mb)
Winds: from the E (100 degrees) at 6 MPH (5 knots; 2.6 m/s)
Visibility: 6 or more miles (10+ km)
Ceiling: ceiling and visibility are OK
Clouds: unknown
Weather: no significant weather observed at this time

Forecast for: LRCL (CLUJ-NAPOCA/SOME, RO)
Text: TAF LRCL 190200Z 1903/1912 VRB04KT CAVOK
Forecast period: 0300 to 0700 UTC 19 September 2019
Forecast type: FROM: standard forecast or significant change
Winds: variable direction winds at 5 MPH (4 knots; 2.1 m/s)
Visibility: 6 or more miles 10+ km)
Ceiling: unknown
Clouds: missing
Weather: NSW  (no significant weather)
Text: BECMG 1907/1909 32010KT
Forecast period: 0700 to 1200 UTC 19 September 2019
Forecast type: BECOMING: Conditions expected to become as follows by 0900 UTC 19 September 2019
Winds: from the NW (320 degrees) at 12 MPH (10 knots; 5.1 m/s)
Visibility: 6 or more miles 10+ km)
Ceiling: unknown
Clouds: missing
Weather: NSW  (no significant weather)